Argo Village, New York
Current Conditions -  °F | °C
As of 1:51 PM on Friday 24 Oct 2014 (Local Time) from KJFK Reporting Station
Broken Clouds Broken Clouds  
Wind Chill: 59°   Ceiling: 3700
Heat Index: 59°   Visibility: 10mi
Dew Point: 43°   Wind: 13mph
Humidity: 55%   Direction: 340°NNW
Pressure: 29.79"   Gusts: NA
Location:  40.7013°N, 73.7074°W
Report Text: KJFK 241751Z 34011KT 10SM BKN037 BKN160 BKN250 15/06 A2979 RMK AO2 SLP086 T01500061 10161 20111 58010
Loading
Personal Weather Stations






























Interactive Weather Map
Tropical Storm Tracking
New forecast layout! Learn more

10-Day Weather Forecast

Advertisements
Track Severe Weather on mobile